createdAt,value
2023-04-16T00:01:47.435Z,87.70
2023-04-16T00:06:47.275Z,88.75
2023-04-16T00:11:48.085Z,88.84
2023-04-16T00:16:47.406Z,89.19
2023-04-16T00:21:47.437Z,89.51
2023-04-16T00:26:47.902Z,89.78
2023-04-16T00:31:47.235Z,90.15
2023-04-16T00:36:47.457Z,91.05
2023-04-16T00:41:48.453Z,90.40
2023-04-16T00:46:47.881Z,90.71
2023-04-16T00:51:47.713Z,91.15
2023-04-16T00:56:47.974Z,91.56
2023-04-16T01:01:47.309Z,92.00
2023-04-16T01:06:47.211Z,92.08
2023-04-16T01:11:47.813Z,92.12
2023-04-16T01:16:47.326Z,92.81
2023-04-16T01:21:47.330Z,92.89
2023-04-16T01:26:47.905Z,92.99
2023-04-16T01:31:47.389Z,92.66
2023-04-16T01:36:47.201Z,93.44
2023-04-16T01:41:47.940Z,93.52
2023-04-16T01:46:47.437Z,93.30
2023-04-16T01:51:47.306Z,93.25
2023-04-16T01:56:47.869Z,92.74
2023-04-16T02:01:47.316Z,92.62
2023-04-16T02:06:47.216Z,92.95
2023-04-16T02:11:47.580Z,92.94
2023-04-16T02:16:47.465Z,93.37
2023-04-16T02:21:48.169Z,93.28
2023-04-16T02:26:47.932Z,92.97
2023-04-16T02:31:48.154Z,93.16
2023-04-16T02:36:47.334Z,92.62
2023-04-16T02:41:47.442Z,92.42
2023-04-16T02:46:47.371Z,92.70
2023-04-16T02:51:47.263Z,93.07
2023-04-16T02:56:48.188Z,92.65
2023-04-16T03:01:47.590Z,92.59
2023-04-16T03:06:47.216Z,92.42
2023-04-16T03:11:47.821Z,92.33
2023-04-16T03:16:47.177Z,92.50
2023-04-16T03:21:47.155Z,92.87
2023-04-16T03:26:48.005Z,92.51
2023-04-16T03:31:47.161Z,92.75
2023-04-16T03:36:47.182Z,92.46
2023-04-16T03:41:48.095Z,92.22
2023-04-16T03:46:44.217Z,92.52
2023-04-16T03:46:47.022Z,92.52
2023-04-16T03:51:47.180Z,91.96
2023-04-16T03:56:47.639Z,91.57
2023-04-16T04:01:47.514Z,91.59
2023-04-16T04:06:47.218Z,91.74
2023-04-16T04:11:48.024Z,91.34
2023-04-16T04:16:47.141Z,91.23
2023-04-16T04:21:47.140Z,91.46
2023-04-16T04:26:48.062Z,90.80
2023-04-16T04:31:47.702Z,90.74
2023-04-16T04:36:47.038Z,91.07
2023-04-16T04:41:48.239Z,90.91
2023-04-16T04:43:18.527Z,90.91
2023-04-16T07:48:38.997Z,80.65
2023-04-16T07:49:06.333Z,80.65
2023-04-16T07:54:06.172Z,79.65
2023-04-16T07:59:21.098Z,79.41
2023-04-16T08:04:06.576Z,79.31
2023-04-16T08:09:06.214Z,78.93
2023-04-16T08:14:07.527Z,79.13
2023-04-16T08:19:06.229Z,78.63
2023-04-16T08:24:06.468Z,78.21
2023-04-16T08:29:06.841Z,77.56
2023-04-16T08:34:06.399Z,77.59
2023-04-16T08:39:06.130Z,76.14
2023-04-16T08:44:08.002Z,75.50
2023-04-16T08:49:07.303Z,73.86
2023-04-16T08:54:08.448Z,74.02
2023-04-16T08:59:08.596Z,73.72
2023-04-16T09:04:06.963Z,73.02
2023-04-16T09:09:08.365Z,73.14
2023-04-16T09:14:09.392Z,72.79
2023-04-16T09:19:06.164Z,72.28
2023-04-16T09:24:07.478Z,71.99
2023-04-16T09:29:08.802Z,72.29
2023-04-16T09:34:08.017Z,71.78
2023-04-16T09:39:06.355Z,71.62
2023-04-16T09:44:06.300Z,70.63
2023-04-16T09:49:09.063Z,70.07
2023-04-16T09:54:06.725Z,69.80
2023-04-16T09:59:08.253Z,68.82
2023-04-16T10:04:06.534Z,68.40
2023-04-16T10:09:07.229Z,68.85
2023-04-16T10:14:06.555Z,68.18
2023-04-16T10:19:06.313Z,66.66
2023-04-16T10:24:07.756Z,67.33
2023-04-16T10:29:07.867Z,67.90
2023-04-16T10:34:08.739Z,68.10
2023-04-16T10:39:10.204Z,68.49
2023-04-16T10:44:08.480Z,68.02
2023-04-16T10:49:14.209Z,67.04
2023-04-16T10:50:14.896Z,67.04
2023-04-16T10:54:20.035Z,66.59
2023-04-16T10:59:09.953Z,66.26
2023-04-16T11:04:26.039Z,65.38
2023-04-16T11:09:06.276Z,64.94
2023-04-16T11:14:08.408Z,63.75
2023-04-16T11:19:06.879Z,63.42
2023-04-16T11:24:11.600Z,63.61
2023-04-16T11:29:14.071Z,63.97
2023-04-16T11:34:07.459Z,63.97
2023-04-16T11:39:06.206Z,62.72
2023-04-16T11:44:16.024Z,62.60
2023-04-16T11:49:06.278Z,61.07
2023-04-16T11:54:07.669Z,59.62
2023-04-16T11:59:08.108Z,59.38
2023-04-16T12:04:07.878Z,58.30
2023-04-16T12:09:23.419Z,58.18
2023-04-16T12:14:07.551Z,57.53
2023-04-16T12:19:10.547Z,55.19
2023-04-16T12:24:08.061Z,55.46
2023-04-16T12:29:17.621Z,55.57
2023-04-16T12:34:06.006Z,56.63
2023-04-16T12:39:06.501Z,55.52
2023-04-16T12:44:10.855Z,54.61
2023-04-16T12:49:06.838Z,54.80
2023-04-16T12:54:06.601Z,55.46
2023-04-16T12:59:09.333Z,53.75
2023-04-16T13:04:06.689Z,52.14
2023-04-16T13:09:06.328Z,52.73
2023-04-16T13:14:06.006Z,51.35
2023-04-16T13:19:06.400Z,52.48
2023-04-16T13:24:07.371Z,54.22
2023-04-16T13:29:06.057Z,55.09
2023-04-16T13:34:06.386Z,54.77
2023-04-16T13:39:10.509Z,53.06
2023-04-16T13:44:06.536Z,52.01
2023-04-16T13:49:06.337Z,51.28
2023-04-16T13:52:09.242Z,51.28
2023-04-16T13:54:05.925Z,50.65
2023-04-16T13:59:06.641Z,52.39
2023-04-16T14:04:06.968Z,51.15
2023-04-16T14:09:06.012Z,52.02
2023-04-16T14:14:06.074Z,53.97
2023-04-16T14:19:06.716Z,55.61
2023-04-16T14:24:08.129Z,55.92
2023-04-16T14:29:05.945Z,55.49
2023-04-16T14:34:06.601Z,55.69
2023-04-16T14:39:08.380Z,55.03
2023-04-16T14:44:05.989Z,56.04
2023-04-16T14:49:06.841Z,55.85
2023-04-16T14:54:06.377Z,55.99
2023-04-16T14:59:06.221Z,55.61
2023-04-16T15:04:08.045Z,55.62
2023-04-16T15:09:07.012Z,57.03
2023-04-16T15:14:06.609Z,57.26
2023-04-16T15:19:06.509Z,58.20
2023-04-16T15:24:07.185Z,57.63
2023-04-16T15:29:06.033Z,58.24
2023-04-16T15:34:06.712Z,58.99
2023-04-16T15:39:06.054Z,59.65
2023-04-16T15:44:06.284Z,59.61
2023-04-16T15:49:06.863Z,59.85
2023-04-16T15:54:06.396Z,60.19
2023-04-16T15:59:06.101Z,61.13
2023-04-16T16:04:07.278Z,61.95
2023-04-16T16:09:05.981Z,62.65
2023-04-16T16:14:06.013Z,62.69
2023-04-16T16:19:06.725Z,63.18
2023-04-16T16:24:06.682Z,63.33
2023-04-16T16:29:06.316Z,63.84
2023-04-16T16:34:06.739Z,63.83
2023-04-16T16:34:34.437Z,63.83
2023-04-16T16:39:05.871Z,64.19
2023-04-16T16:44:05.907Z,64.66
2023-04-16T16:49:09.338Z,65.11
2023-04-16T16:54:06.565Z,65.19
2023-04-16T16:59:06.659Z,65.63
2023-04-16T17:04:07.018Z,66.66
2023-04-16T17:09:06.298Z,67.09
2023-04-16T17:14:05.846Z,67.54
2023-04-16T17:19:06.182Z,67.66
2023-04-16T17:24:06.671Z,67.93
2023-04-16T17:29:05.977Z,68.72
2023-04-16T17:34:06.359Z,69.57
2023-04-16T17:39:06.607Z,70.03
2023-04-16T17:44:05.849Z,70.50
2023-04-16T17:49:06.087Z,71.19
2023-04-16T17:54:06.885Z,71.73
2023-04-16T17:59:05.914Z,71.84
2023-04-16T18:02:42.839Z,71.84
2023-04-16T18:04:06.365Z,72.79
2023-04-16T18:09:06.521Z,72.98
2023-04-16T18:14:08.854Z,73.42
2023-04-16T18:19:05.941Z,73.83
2023-04-16T18:24:06.771Z,74.27
2023-04-16T18:29:05.787Z,74.28
2023-04-16T18:34:06.002Z,75.54
2023-04-16T18:39:07.408Z,75.76
2023-04-16T18:44:05.762Z,75.96
2023-04-16T18:48:45.521Z,76.56
2023-04-16T19:59:02.672Z,82.18
2023-04-16T20:02:45.816Z,82.18
2023-04-16T20:07:45.607Z,83.32
2023-04-16T20:12:46.173Z,83.82
2023-04-16T20:17:45.665Z,83.67
2023-04-16T20:22:45.658Z,83.81
2023-04-16T20:27:46.915Z,84.35
2023-04-16T20:32:45.618Z,84.36
2023-04-16T20:37:45.657Z,84.29
2023-04-16T20:42:46.473Z,84.94
2023-04-16T20:47:45.797Z,84.72
2023-04-16T20:52:45.537Z,85.41
2023-04-16T20:57:46.242Z,85.90
2023-04-16T21:02:45.832Z,86.24
2023-04-16T21:07:45.633Z,86.53
2023-04-16T21:12:45.929Z,86.55
2023-04-16T21:17:45.650Z,86.43
2023-04-16T21:22:45.664Z,87.16
2023-04-16T21:27:45.911Z,86.21
2023-04-16T21:32:45.674Z,87.50
2023-04-16T21:37:45.665Z,86.89
2023-04-16T21:42:46.434Z,86.67
2023-04-16T21:47:45.514Z,85.81
2023-04-16T21:52:45.797Z,86.99
2023-04-16T21:57:46.113Z,86.85
2023-04-16T22:02:46.242Z,86.45
2023-04-16T22:07:45.752Z,86.83
2023-04-16T22:12:45.661Z,87.44
2023-04-16T22:17:47.590Z,87.51
2023-04-16T22:22:45.602Z,87.52
2023-04-16T22:27:45.588Z,87.63
2023-04-16T22:32:46.307Z,87.44
2023-04-16T22:37:45.786Z,87.77
2023-04-16T22:42:46.676Z,88.31
2023-04-16T22:47:46.415Z,87.86
2023-04-16T22:52:45.498Z,88.01
2023-04-16T22:57:46.430Z,88.51
2023-04-16T23:02:46.144Z,88.32
2023-04-16T23:07:45.736Z,88.10
2023-04-16T23:12:45.445Z,88.33
2023-04-16T23:17:46.023Z,88.06
2023-04-16T23:22:45.889Z,87.90
2023-04-16T23:27:45.456Z,88.17
2023-04-16T23:32:46.217Z,88.47
2023-04-16T23:37:45.521Z,88.45
2023-04-16T23:42:45.592Z,87.79
2023-04-16T23:47:46.358Z,88.43
2023-04-16T23:52:45.432Z,88.59
2023-04-16T23:57:45.725Z,89.43
